ADDS METAR Data INFO
IDs: Format: Raw Decoded Include TAF

Data at: 0929 UTC 17 Oct 2017

KPSO 170915Z AUTO 00000KT 10SM CLR 00/M10 A3046 RMK AO2 T00001101
KPSO 170855Z AUTO 00000KT 10SM CLR 00/M10 A3046 RMK AO2 T00041104
KPSO 170835Z AUTO 00000KT 10SM CLR M01/M10 A3046 RMK AO2 T10081096
KPSO 170815Z AUTO 00000KT 10SM CLR 01/M11 A3046 RMK AO2 T00121108
KPSO 170755Z AUTO 00000KT 10SM CLR 00/M10 A3046 RMK AO2 T00031103
KPSO 170735Z AUTO 00000KT 10SM CLR 00/M11 A3046 RMK AO2 T00021106
KPSO 170715Z AUTO 00000KT 10SM CLR 01/M10 A3046 RMK AO2 T00091102
KPSO 170655Z AUTO 00000KT 10SM CLR 02/M10 A3046 RMK AO2 T00211100
KPSO 170635Z AUTO 00000KT 10SM CLR 02/M10 A3046 RMK AO2 T00201099
KPSO 170615Z AUTO 00000KT 10SM CLR 02/M11 A3046 RMK AO2 T00241106
KPSO 170555Z AUTO 00000KT 10SM CLR 02/M10 A3046 RMK AO2 T00221096 10188 20022 402051032
KPSO 170535Z AUTO 00000KT 10SM CLR 03/M11 A3046 RMK AO2 T00341109
KPSO 170515Z AUTO 00000KT 10SM CLR 03/M10 A3048 RMK AO2 T00251103
KPSO 170455Z AUTO 00000KT 10SM CLR 04/M10 A3048 RMK AO2 T00351104
KPSO 170435Z AUTO 08003KT 10SM CLR 04/M11 A3048 RMK AO2 T00441110
KPSO 170415Z AUTO 00000KT 10SM CLR 04/M11 A3048 RMK AO2 T00411108
KPSO 170355Z AUTO 00000KT 10SM CLR 06/M11 A3048 RMK AO2 T00581110
KPSO 170335Z AUTO 04003KT 10SM CLR 07/M11 A3048 RMK AO2 T00651111
KPSO 170315Z AUTO 04003KT 7SM CLR 06/M11 A3047 RMK AO2 T00551108
KPSO 170255Z AUTO 00000KT 10SM CLR 08/M11 A3046 RMK AO2 T00801115
KPSO 170235Z AUTO 00000KT 10SM CLR 08/M11 A3046 RMK AO2 T00761107
KPSO 170215Z AUTO 00000KT 10SM CLR 10/M11 A3046 RMK AO2 T00961108
KPSO 170155Z AUTO 00000KT 10SM CLR 07/M09 A3046 RMK AO2 T00741095
KPSO 170135Z AUTO 00000KT 10SM CLR 09/M11 A3045 RMK AO2 T00911106
KPSO 170115Z AUTO 00000KT 10SM CLR 09/M09 A3044 RMK AO2 T00941089
KPSO 170055Z AUTO 00000KT 10SM CLR 10/M08 A3044 RMK AO2 T00991083
KPSO 170035Z AUTO 00000KT 10SM CLR 14/M10 A3044 RMK AO2 T01381098
KPSO 170015Z AUTO 15004KT 10SM CLR 17/M13 A3044 RMK AO2 T01731134
KPSO 162355Z AUTO 20006KT 10SM CLR 19/M15 A3044 RMK AO2 T01881153 10205 20153
KPSO 162335Z AUTO 21007KT 10SM CLR 20/M15 A3044 RMK AO2 T01951151
KPSO 162315Z AUTO 20008KT 10SM CLR 20/M16 A3044 RMK AO2 T01951160
KPSO 162255Z AUTO 20010G14KT 10SM CLR 20/M16 A3044 RMK AO2 T01981160
KPSO 162235Z AUTO 23008KT 10SM CLR 20/M16 A3044 RMK AO2 T02021165
KPSO 162215Z AUTO 21008KT 10SM CLR 20/M19 A3044 RMK AO2 T02001189
KPSO 162155Z AUTO 23008KT 10SM CLR 20/M19 A3045 RMK AO2 T02001189
KPSO 162135Z AUTO 24008KT 10SM CLR 20/M18 A3045 RMK AO2 T02021183
KPSO 162115Z AUTO 17005KT 10SM CLR 20/M16 A3045 RMK AO2 T02011164
KPSO 162055Z AUTO 15007KT 10SM CLR 20/M17 A3046 RMK AO2 T01961166
KPSO 162035Z AUTO 22007KT 10SM CLR 20/M17 A3046 RMK AO2 T01971166
KPSO 162015Z AUTO 22005KT 10SM CLR 19/M17 A3048 RMK AO2 T01891166
KPSO 161955Z AUTO 23008KT 10SM CLR 19/M16 A3048 RMK AO2 T01881164
KPSO 161935Z AUTO 21008KT 10SM CLR 18/M16 A3049 RMK AO2 T01821157
KPSO 161915Z AUTO 17004KT 10SM CLR 17/M15 A3051 RMK AO2 T01731151
KPSO 161855Z AUTO 00000KT 10SM CLR 17/M16 A3052 RMK AO2 T01701159
KPSO 161835Z AUTO 00000KT 10SM CLR 16/M17 A3053 RMK AO2 T01621173
KPSO 161815Z AUTO 21003KT 10SM CLR 16/M17 A3054 RMK AO2 T01601166
KPSO 161755Z AUTO 00000KT 10SM CLR 15/M17 A3055 RMK AO2 T01521167 10156 21032
KPSO 161735Z AUTO 00000KT 10SM CLR 15/M13 A3056 RMK AO2 T01521129
KPSO 161715Z AUTO 00000KT 10SM CLR 14/M12 A3056 RMK AO2 T01371117
KPSO 161655Z AUTO 00000KT 10SM CLR 13/M10 A3057 RMK AO2 T01301101
KPSO 161635Z AUTO 00000KT 10SM CLR 11/M10 A3058 RMK AO2 T01141097
KPSO 161615Z AUTO 00000KT 10SM CLR 11/M10 A3058 RMK AO2 T01071096
KPSO 161555Z AUTO 00000KT 10SM CLR 09/M11 A3058 RMK AO2 T00881106
KPSO 161535Z AUTO 00000KT 10SM CLR 08/M11 A3058 RMK AO2 T00811109
KPSO 161515Z AUTO 00000KT 10SM CLR 07/M11 A3058 RMK AO2 T00661112
KPSO 161455Z AUTO 00000KT 10SM CLR 05/M10 A3058 RMK AO2 T00511103
KPSO 161435Z AUTO 00000KT 10SM CLR 03/M09 A3057 RMK AO2 T00291095
KPSO 161415Z AUTO 00000KT 7SM CLR 00/M10 A3056 RMK AO2 T10011097
KPSO 161355Z AUTO 00000KT 10SM CLR M02/M11 A3056 RMK AO2 T10221108
KPSO 161335Z AUTO 00000KT 10SM CLR M03/M11 A3056 RMK AO2 T10301109
KPSO 161315Z AUTO 00000KT 10SM CLR M02/M10 A3055 RMK AO2 T10231104
KPSO 161255Z AUTO 00000KT 10SM CLR M03/M12 A3055 RMK AO2 T10261116
KPSO 161235Z AUTO 00000KT 10SM CLR M01/M12 A3056 RMK AO2 T10101117
KPSO 161215Z AUTO 00000KT 10SM CLR M02/M11 A3056 RMK AO2 T10251115
KPSO 161155Z AUTO 00000KT 10SM CLR M02/M11 A3056 RMK AO2 T10171115 10014 21030
KPSO 161135Z AUTO 00000KT 10SM CLR M02/M11 A3056 RMK AO2 T10221115
KPSO 161115Z AUTO 00000KT 10SM CLR M02/M10 A3056 RMK AO2 T10201104
KPSO 161055Z AUTO 00000KT 10SM CLR M02/M11 A3055 RMK AO2 T10161111
KPSO 161035Z AUTO 00000KT 10SM CLR M02/M12 A3055 RMK AO2 T10231117
KPSO 161015Z AUTO 00000KT 10SM CLR M02/M10 A3056 RMK AO2 T10201105
KPSO 160955Z AUTO 00000KT 10SM CLR M01/M11 A3055 RMK AO2 T10071113
KPSO 160935Z AUTO 00000KT 10SM CLR M01/M12 A3056 RMK AO2 T10071117
KPSO 160915Z AUTO 00000KT 10SM CLR M01/M11 A3056 RMK AO2 T10091114
KPSO 160855Z AUTO 00000KT 10SM CLR 00/M11 A3056 RMK AO2 T10031111
KPSO 160835Z AUTO 00000KT 10SM CLR M01/M11 A3056 RMK AO2 T10071113
KPSO 160815Z AUTO 00000KT 10SM CLR M01/M12 A3058 RMK AO2 T10101122
KPSO 160755Z AUTO 00000KT 10SM CLR M01/M11 A3057 RMK AO2 T10071107
KPSO 160735Z AUTO 00000KT 10SM CLR 00/M12 A3058 RMK AO2 T10041125
KPSO 160715Z AUTO 00000KT 10SM CLR 01/M13 A3058 RMK AO2 T00131126
KPSO 160655Z AUTO 00000KT 10SM CLR 00/M11 A3058 RMK AO2 T00001109
KPSO 160635Z AUTO 00000KT 10SM CLR 01/M11 A3058 RMK AO2 T00081115
KPSO 160615Z AUTO 00000KT 10SM CLR 01/M11 A3058 RMK AO2 T00091109
KPSO 160555Z AUTO 00000KT 10SM CLR 01/M11 A3058 RMK AO2 T00051115 10173 20004 401891048
KPSO 160535Z AUTO 00000KT 10SM CLR 01/M11 A3058 RMK AO2 T00111108
KPSO 160515Z AUTO 00000KT 10SM CLR 02/M11 A3058 RMK AO2 T00191113
KPSO 160455Z AUTO 00000KT 10SM CLR 03/M12 A3058 RMK AO2 T00301118
KPSO 160435Z AUTO 00000KT 10SM CLR 03/M13 A3057 RMK AO2 T00321127
KPSO 160415Z AUTO 00000KT 10SM CLR 03/M11 A3057 RMK AO2 T00281110
KPSO 160355Z AUTO 00000KT 10SM CLR 03/M12 A3056 RMK AO2 T00321117
KPSO 160335Z AUTO 00000KT 10SM CLR 04/M13 A3056 RMK AO2 T00431126
KPSO 160315Z AUTO 00000KT 10SM CLR 07/M13 A3056 RMK AO2 T00671130
KPSO 160255Z AUTO 00000KT 10SM CLR 05/M12 A3055 RMK AO2 T00451122
KPSO 160235Z AUTO 04003KT 10SM CLR 07/M13 A3055 RMK AO2 T00691126
KPSO 160215Z AUTO 02003KT 10SM CLR 08/M13 A3054 RMK AO2 T00751127
KPSO 160155Z AUTO 00000KT 10SM CLR 07/M11 A3053 RMK AO2 T00671113
KPSO 160135Z AUTO 00000KT 10SM CLR 08/M12 A3053 RMK AO2 T00781119
KPSO 160115Z AUTO 00000KT 10SM CLR 08/M11 A3052 RMK AO2 T00801113
KPSO 160055Z AUTO 00000KT 10SM CLR 11/M14 A3051 RMK AO2 T01101139
KPSO 160035Z AUTO 25003KT 10SM CLR 13/M15 A3051 RMK AO2 T01321155
KPSO 160015Z AUTO 24003KT 10SM CLR 16/M15 A3051 RMK AO2 T01601153
KPSO 152355Z AUTO 22005KT 10SM CLR 17/M19 A3050 RMK AO2 T01731187 10189 20136
KPSO 152335Z AUTO 23007KT 10SM CLR 18/M20 A3050 RMK AO2 T01771196
KPSO 152315Z AUTO 25007KT 10SM CLR 18/M21 A3050 RMK AO2 T01811215
KPSO 152255Z AUTO 23007KT 10SM CLR 19/M23 A3050 RMK AO2 T01851231
KPSO 152235Z AUTO 23007KT 10SM CLR 19/M24 A3050 RMK AO2 T01861244
KPSO 152215Z AUTO 19003KT 10SM CLR 18/M21 A3050 RMK AO2 T01841208
KPSO 152155Z AUTO 22005KT 10SM CLR 19/M20 A3050 RMK AO2 T01851203
KPSO 152135Z AUTO 17004KT 10SM CLR 19/M20 A3051 RMK AO2 T01851203